createdAt,value
2022-08-18T00:01:50.011Z,54.78
2022-08-18T00:04:35.976Z,64.72
2022-08-18T00:07:04.596Z,57.40
2022-08-18T00:09:32.926Z,60.42
2022-08-18T00:12:01.889Z,64.03
2022-08-18T00:14:29.350Z,55.28
2022-08-18T00:16:58.226Z,47.22
2022-08-18T00:19:46.923Z,56.17
2022-08-18T00:22:15.662Z,47.10
2022-08-18T00:24:47.621Z,42.03
2022-08-18T00:27:19.506Z,41.92
2022-08-18T00:29:49.633Z,47.05
2022-08-18T00:32:19.475Z,47.67
2022-08-18T00:34:46.905Z,47.83
2022-08-18T00:37:14.388Z,43.58
2022-08-18T00:39:43.643Z,45.70
2022-08-18T00:42:27.656Z,44.50
2022-08-18T00:44:59.678Z,44.42
2022-08-18T00:47:41.913Z,47.15
2022-08-18T00:50:15.008Z,48.83
2022-08-18T00:52:43.521Z,48.80
2022-08-18T00:55:11.045Z,43.53
2022-08-18T00:57:38.668Z,46.47
2022-08-18T01:00:12.843Z,41.40
2022-08-18T01:02:43.701Z,44.00
2022-08-18T01:05:15.407Z,45.92
2022-08-18T01:07:45.036Z,42.63
2022-08-18T01:10:16.166Z,43.85
2022-08-18T01:12:46.637Z,41.60
2022-08-18T01:18:17.187Z,39.50
2022-08-18T01:21:04.163Z,38.80
2022-08-18T01:23:32.971Z,39.45
2022-08-18T01:26:03.881Z,40.45
2022-08-18T01:28:32.603Z,45.72
2022-08-18T01:31:00.897Z,44.53
2022-08-18T01:33:32.488Z,41.28
2022-08-18T01:36:01.115Z,43.70
2022-08-18T01:38:28.651Z,39.63
2022-08-18T01:41:24.150Z,40.38
2022-08-18T01:43:45.567Z,36.58
2022-08-18T01:46:13.681Z,40.38
2022-08-18T01:48:42.425Z,36.22
2022-08-18T01:51:12.881Z,35.92
2022-08-18T01:53:40.337Z,39.45
2022-08-18T01:56:09.442Z,33.22
2022-08-18T01:58:37.265Z,31.52
2022-08-18T02:01:05.449Z,35.05
2022-08-18T02:03:35.283Z,31.42
2022-08-18T02:06:04.873Z,32.33
2022-08-18T02:08:32.530Z,31.35
2022-08-18T02:11:01.315Z,33.08
2022-08-18T02:13:30.405Z,37.22
2022-08-18T02:15:57.878Z,28.98
2022-08-18T02:18:47.199Z,28.20
2022-08-18T02:21:19.061Z,28.08
2022-08-18T02:23:53.250Z,34.10
2022-08-18T02:26:21.251Z,30.15
2022-08-18T02:28:50.267Z,31.08
2022-08-18T02:31:18.896Z,32.00
2022-08-18T02:33:48.527Z,32.08
2022-08-18T02:36:19.855Z,31.55
2022-08-18T02:38:54.814Z,29.60
2022-08-18T02:41:29.605Z,28.70
2022-08-18T02:43:59.308Z,27.92
2022-08-18T02:46:29.716Z,28.13
2022-08-18T02:48:57.873Z,29.67
2022-08-18T02:51:26.010Z,28.00
2022-08-18T02:53:54.211Z,25.33
2022-08-18T02:56:40.099Z,29.60
2022-08-18T02:59:11.909Z,26.42
2022-08-18T03:01:40.467Z,28.58
2022-08-18T03:04:08.991Z,27.80
2022-08-18T03:06:37.243Z,26.38
2022-08-18T03:09:05.415Z,28.48
2022-08-18T03:11:32.846Z,26.17
2022-08-18T03:14:01.199Z,32.00
2022-08-18T03:16:32.969Z,30.00
2022-08-18T03:19:01.022Z,30.13
2022-08-18T03:21:29.586Z,29.90
2022-08-18T03:24:01.550Z,26.02
2022-08-18T03:26:30.622Z,27.40
2022-08-18T03:28:59.811Z,28.65
2022-08-18T03:31:28.581Z,27.02
2022-08-18T03:33:59.786Z,27.25
2022-08-18T03:36:28.939Z,24.20
2022-08-18T03:38:56.917Z,26.48
2022-08-18T03:41:57.386Z,24.67
2022-08-18T03:44:13.389Z,25.15
2022-08-18T03:46:41.178Z,22.75
2022-08-18T03:49:10.045Z,22.10
2022-08-18T03:51:37.799Z,25.13
2022-08-18T03:54:06.257Z,25.63
2022-08-18T03:56:34.648Z,23.75
2022-08-18T03:59:02.902Z,22.38
2022-08-18T04:01:32.657Z,21.17
2022-08-18T04:04:02.049Z,20.85
2022-08-18T04:06:31.689Z,23.25
2022-08-18T04:09:00.570Z,24.23
2022-08-18T04:11:29.251Z,23.48
2022-08-18T04:14:03.334Z,22.58
2022-08-18T04:16:32.249Z,23.23
2022-08-18T04:19:03.443Z,23.92
2022-08-18T04:21:32.900Z,22.63
2022-08-18T04:24:05.097Z,22.27
2022-08-18T04:26:33.600Z,22.55
2022-08-18T04:29:02.032Z,24.88
2022-08-18T04:31:30.987Z,25.10
2022-08-18T04:33:59.344Z,26.02
2022-08-18T04:36:27.358Z,24.17
2022-08-18T04:38:56.684Z,24.25
2022-08-18T04:41:27.174Z,22.63
2022-08-18T04:43:55.039Z,22.10
2022-08-18T04:46:24.162Z,25.42
2022-08-18T04:48:52.213Z,24.58
2022-08-18T04:52:36.451Z,26.60
2022-08-18T04:54:08.302Z,27.35
2022-08-18T04:56:37.436Z,23.85
2022-08-18T04:59:06.455Z,21.65
2022-08-18T05:01:35.891Z,24.77
2022-08-18T05:04:03.441Z,23.98
2022-08-18T05:06:31.336Z,26.90
2022-08-18T05:08:59.816Z,24.17
2022-08-18T05:11:30.044Z,24.85
2022-08-18T05:13:58.266Z,25.70
2022-08-18T05:16:27.238Z,27.58
2022-08-18T05:18:55.552Z,21.73
2022-08-18T05:21:24.483Z,24.10
2022-08-18T05:23:52.119Z,26.25
2022-08-18T05:26:20.210Z,25.88
2022-08-18T05:28:48.986Z,24.13
2022-08-18T05:31:28.797Z,26.33
2022-08-18T05:33:56.717Z,23.23
2022-08-18T05:36:32.757Z,20.92
2022-08-18T05:39:03.837Z,23.10
2022-08-18T05:41:33.773Z,21.58
2022-08-18T05:44:02.695Z,21.35
2022-08-18T05:46:34.843Z,21.27
2022-08-18T05:49:02.334Z,21.70
2022-08-18T05:51:34.710Z,19.77
2022-08-18T05:54:20.750Z,24.17
2022-08-18T05:56:49.664Z,21.73
2022-08-18T05:59:22.088Z,17.65
2022-08-18T06:01:52.550Z,19.38
2022-08-18T06:04:24.399Z,21.10
2022-08-18T06:06:52.482Z,20.48
2022-08-18T06:09:22.667Z,19.77
2022-08-18T06:11:50.734Z,16.67
2022-08-18T06:14:20.109Z,20.58
2022-08-18T06:16:53.336Z,16.83
2022-08-18T06:19:29.043Z,21.45
2022-08-18T06:22:00.614Z,19.13
2022-08-18T06:24:32.127Z,18.20
2022-08-18T06:27:02.057Z,19.30
2022-08-18T06:29:41.148Z,16.90
2022-08-18T06:32:15.037Z,18.85
2022-08-18T06:35:01.307Z,19.88
2022-08-18T06:37:31.771Z,18.25
2022-08-18T06:40:00.831Z,20.48
2022-08-18T06:42:30.582Z,19.95
2022-08-18T06:45:01.957Z,18.50
2022-08-18T06:47:34.492Z,16.33
2022-08-18T06:50:05.676Z,16.95
2022-08-18T06:52:35.980Z,19.17
2022-08-18T06:55:07.576Z,16.05
2022-08-18T06:57:36.437Z,16.00
2022-08-18T07:00:09.647Z,16.05
2022-08-18T07:02:43.107Z,15.27
2022-08-18T07:05:20.551Z,15.50
2022-08-18T07:08:02.131Z,16.70
2022-08-18T07:10:32.637Z,13.35
2022-08-18T07:13:09.976Z,13.63
2022-08-18T07:15:38.766Z,13.32
2022-08-18T07:18:07.494Z,14.10
2022-08-18T07:20:42.551Z,18.80
2022-08-18T07:23:10.612Z,16.45
2022-08-18T07:25:40.472Z,13.50
2022-08-18T07:28:08.014Z,13.32
2022-08-18T07:30:36.943Z,14.95
2022-08-18T07:33:12.525Z,13.57
2022-08-18T07:35:42.715Z,14.00
2022-08-18T07:38:40.750Z,13.57
2022-08-18T07:41:05.976Z,13.73
2022-08-18T07:43:38.482Z,10.15
2022-08-18T07:46:09.303Z,12.60
2022-08-18T07:48:39.916Z,13.20
2022-08-18T07:51:13.978Z,11.10
2022-08-18T07:53:54.828Z,12.57
2022-08-18T07:56:28.055Z,11.95
2022-08-18T07:58:57.310Z,12.20
2022-08-18T08:01:29.699Z,11.32
2022-08-18T08:04:07.907Z,11.13
2022-08-18T08:06:40.047Z,13.05
2022-08-18T08:09:11.121Z,10.75
2022-08-18T08:11:44.619Z,10.75
2022-08-18T08:14:22.898Z,12.30
2022-08-18T08:17:08.220Z,10.90
2022-08-18T08:20:00.428Z,10.93
2022-08-18T08:22:31.546Z,8.93
2022-08-18T08:25:02.373Z,11.80
2022-08-18T08:30:01.459Z,9.30
2022-08-18T08:32:32.366Z,8.10
2022-08-18T08:37:33.615Z,9.10
2022-08-18T08:40:03.594Z,9.25
2022-08-18T08:42:40.234Z,7.57
2022-08-18T08:45:10.064Z,9.93
2022-08-18T08:47:41.539Z,9.13
2022-08-18T08:50:13.120Z,8.32
2022-08-18T08:52:44.727Z,8.57
2022-08-18T08:55:16.239Z,8.18
2022-08-18T08:57:46.520Z,10.55
2022-08-18T09:00:15.182Z,7.70
2022-08-18T09:02:53.412Z,7.90
2022-08-18T09:05:22.614Z,6.18
2022-08-18T09:08:06.929Z,8.15
2022-08-18T09:10:50.206Z,8.30
2022-08-18T09:13:35.571Z,7.40
2022-08-18T09:16:13.608Z,7.93
2022-08-18T09:18:51.743Z,6.60
2022-08-18T09:21:29.494Z,8.27
2022-08-18T09:24:07.786Z,10.13
2022-08-18T09:26:42.838Z,6.80
2022-08-18T09:29:23.405Z,8.77
2022-08-18T09:32:12.517Z,8.80
2022-08-18T09:34:46.093Z,7.28
2022-08-18T09:37:17.265Z,8.32
2022-08-18T09:40:11.080Z,6.78
2022-08-18T09:42:49.669Z,10.02
2022-08-18T09:45:42.352Z,10.27
2022-08-18T09:48:32.250Z,10.00
2022-08-18T09:51:24.556Z,9.70
2022-08-18T09:54:08.910Z,10.52
2022-08-18T09:57:06.825Z,10.05
2022-08-18T09:59:54.379Z,8.55
2022-08-18T10:02:41.478Z,9.65
2022-08-18T10:05:27.452Z,6.82
2022-08-18T10:08:21.493Z,10.75
2022-08-18T10:11:00.755Z,5.80
2022-08-18T10:13:48.999Z,5.28
2022-08-18T10:16:19.546Z,7.22
2022-08-18T10:18:54.237Z,5.68
2022-08-18T10:21:31.497Z,6.35
2022-08-18T10:24:15.147Z,7.28
2022-08-18T10:27:13.142Z,10.23
2022-08-18T10:29:47.672Z,3.33
2022-08-18T10:32:22.468Z,3.63
2022-08-18T10:34:52.906Z,3.72
2022-08-18T10:37:26.072Z,3.03
2022-08-18T10:39:55.651Z,5.63
2022-08-18T10:42:24.214Z,3.25
2022-08-18T10:45:06.578Z,4.13
2022-08-18T10:47:34.288Z,4.40
2022-08-18T10:50:02.455Z,3.33
2022-08-18T10:52:48.748Z,3.33
2022-08-18T10:55:47.734Z,4.20
2022-08-18T10:58:28.037Z,3.75
2022-08-18T11:01:06.875Z,5.30
2022-08-18T11:03:52.072Z,3.97
2022-08-18T11:06:26.068Z,4.03
2022-08-18T11:08:57.363Z,4.68
2022-08-18T11:11:33.354Z,3.75
2022-08-18T11:14:11.373Z,5.72
2022-08-18T11:16:45.245Z,4.65
2022-08-18T11:19:14.232Z,6.07
2022-08-18T11:21:45.844Z,3.08
2022-08-18T11:24:20.955Z,5.10
2022-08-18T11:26:53.125Z,3.75
2022-08-18T11:29:22.478Z,4.85
2022-08-18T11:31:52.717Z,6.68
2022-08-18T11:34:22.784Z,4.05
2022-08-18T11:36:57.534Z,4.13
2022-08-18T11:39:36.643Z,6.43
2022-08-18T11:42:09.202Z,3.33
2022-08-18T11:44:43.814Z,5.43
2022-08-18T11:47:16.561Z,5.47
2022-08-18T11:49:53.934Z,4.88
2022-08-18T11:52:29.417Z,3.28
2022-08-18T11:55:16.510Z,6.80
2022-08-18T11:57:53.381Z,3.75
2022-08-18T12:03:37.915Z,3.95
2022-08-18T12:06:19.188Z,2.42
2022-08-18T12:08:58.782Z,2.58
2022-08-18T12:11:28.852Z,4.60
2022-08-18T12:14:30.163Z,4.63
2022-08-18T12:16:55.243Z,3.92
2022-08-18T12:19:25.272Z,5.72
2022-08-18T12:21:55.558Z,3.38
2022-08-18T12:24:34.487Z,3.95
2022-08-18T12:27:20.679Z,3.33
2022-08-18T12:29:50.177Z,2.78
2022-08-18T12:32:49.013Z,3.03
2022-08-18T12:38:00.000Z,2.53
2022-08-18T12:40:31.299Z,3.42
2022-08-18T12:42:58.661Z,2.78
2022-08-18T12:45:27.197Z,2.75
2022-08-18T12:47:55.295Z,4.28
2022-08-18T12:50:31.202Z,2.72
2022-08-18T12:53:00.874Z,3.83
2022-08-18T12:55:29.045Z,3.83
2022-08-18T12:57:57.121Z,4.53
2022-08-18T13:03:13.421Z,4.80
2022-08-18T13:05:42.679Z,5.30
2022-08-18T13:08:30.102Z,3.22
2022-08-18T13:11:21.489Z,3.42
2022-08-18T13:13:52.635Z,5.75
2022-08-18T13:16:30.622Z,3.78
2022-08-18T13:19:06.976Z,4.35
2022-08-18T13:21:40.851Z,3.88
2022-08-18T13:24:09.559Z,5.55
2022-08-18T13:26:38.692Z,13.93
2022-08-18T13:29:10.162Z,4.03
2022-08-18T13:31:39.167Z,3.40
2022-08-18T13:34:15.279Z,2.95
2022-08-18T13:36:48.311Z,4.63
2022-08-18T13:39:16.680Z,4.82
2022-08-18T13:41:45.615Z,2.50
2022-08-18T13:44:18.989Z,4.47
2022-08-18T13:46:48.152Z,6.70
2022-08-18T13:49:16.004Z,4.15
2022-08-18T13:51:46.555Z,3.13
2022-08-18T13:54:31.249Z,5.10
2022-08-18T13:57:00.107Z,4.47
2022-08-18T13:59:31.510Z,2.70
2022-08-18T14:01:59.953Z,3.05
2022-08-18T14:04:28.337Z,3.03
2022-08-18T14:06:59.202Z,4.45
2022-08-18T14:09:36.159Z,3.75
2022-08-18T14:12:06.719Z,4.65
2022-08-18T14:14:43.609Z,4.93
2022-08-18T14:17:11.013Z,4.35
2022-08-18T14:19:56.241Z,6.68
2022-08-18T14:22:41.860Z,4.53
2022-08-18T14:25:28.957Z,6.28
2022-08-18T14:27:57.094Z,2.97
2022-08-18T14:30:25.023Z,4.60
2022-08-18T14:32:53.783Z,4.72
2022-08-18T14:35:33.848Z,4.43
2022-08-18T14:38:10.379Z,3.60
2022-08-18T14:40:42.976Z,4.10
2022-08-18T14:43:10.810Z,4.88
2022-08-18T14:45:38.443Z,3.63
2022-08-18T14:48:11.057Z,3.28
2022-08-18T14:50:40.031Z,5.68
2022-08-18T14:53:13.536Z,3.65
2022-08-18T14:55:44.292Z,3.45
2022-08-18T14:58:11.733Z,2.65
2022-08-18T15:00:53.380Z,3.13
2022-08-18T15:03:22.029Z,3.85
2022-08-18T15:05:59.362Z,4.10
2022-08-18T15:08:26.925Z,2.60
2022-08-18T15:10:57.796Z,3.78
2022-08-18T15:13:26.972Z,3.30
2022-08-18T15:15:55.798Z,3.22
2022-08-18T15:18:29.520Z,4.05
2022-08-18T15:21:19.629Z,2.55
2022-08-18T15:24:20.577Z,2.75
2022-08-18T15:26:51.706Z,3.20
2022-08-18T15:29:29.030Z,4.15
2022-08-18T15:32:05.196Z,5.47
2022-08-18T15:34:43.969Z,3.50
2022-08-18T15:37:15.148Z,2.58
2022-08-18T15:39:42.764Z,2.45
2022-08-18T15:42:13.547Z,2.75
2022-08-18T15:44:41.666Z,2.33
2022-08-18T15:47:12.340Z,1.63
2022-08-18T15:49:39.769Z,3.83
2022-08-18T15:52:07.266Z,4.00
2022-08-18T15:54:42.308Z,2.50
2022-08-18T16:02:29.463Z,2.58
2022-08-18T16:04:56.886Z,2.65
2022-08-18T16:07:39.799Z,2.63
2022-08-18T16:10:11.869Z,2.95
2022-08-18T16:12:45.659Z,3.80
2022-08-18T16:15:14.344Z,2.65
2022-08-18T16:17:48.885Z,2.22
2022-08-18T16:20:18.626Z,3.05
2022-08-18T16:22:46.535Z,2.30
2022-08-18T16:25:16.302Z,3.78
2022-08-18T16:27:44.053Z,2.10
2022-08-18T16:30:13.112Z,3.78
2022-08-18T16:32:40.627Z,2.95
2022-08-18T16:35:11.045Z,3.53
2022-08-18T16:37:39.036Z,3.05
2022-08-18T16:40:08.334Z,2.20
2022-08-18T16:42:35.850Z,3.80
2022-08-18T16:45:04.302Z,4.38
2022-08-18T16:47:33.551Z,2.47
2022-08-18T16:50:01.078Z,5.13
2022-08-18T16:52:29.899Z,3.20
2022-08-18T16:54:58.138Z,2.47
2022-08-18T16:57:54.049Z,3.35
2022-08-18T17:00:40.973Z,3.28
2022-08-18T17:03:26.909Z,3.00
2022-08-18T17:05:59.502Z,2.83
2022-08-18T17:08:28.592Z,2.33
2022-08-18T17:10:56.226Z,2.10
2022-08-18T17:13:24.154Z,2.88
2022-08-18T17:15:52.023Z,2.30
2022-08-18T17:18:20.070Z,3.47
2022-08-18T17:20:47.872Z,2.63
2022-08-18T17:23:15.339Z,1.90
2022-08-18T17:25:45.390Z,2.75
2022-08-18T17:28:15.483Z,3.08
2022-08-18T17:30:46.012Z,2.08
2022-08-18T17:33:16.200Z,2.72
2022-08-18T17:35:44.806Z,3.00
2022-08-18T17:38:15.061Z,2.97
2022-08-18T17:40:46.020Z,2.10
2022-08-18T17:43:15.146Z,3.97
2022-08-18T17:45:43.370Z,3.75
2022-08-18T17:48:12.768Z,2.20
2022-08-18T17:51:00.164Z,2.22
2022-08-18T17:53:27.741Z,2.60
2022-08-18T17:55:59.839Z,2.25
2022-08-18T17:58:29.237Z,3.25
2022-08-18T18:00:57.263Z,5.43
2022-08-18T18:03:24.667Z,3.58
2022-08-18T18:05:54.252Z,2.20
2022-08-18T18:08:21.658Z,3.17
2022-08-18T18:11:04.292Z,3.95
2022-08-18T18:13:34.335Z,4.82
2022-08-18T18:16:02.872Z,3.28
2022-08-18T18:18:34.083Z,2.92
2022-08-18T18:21:05.708Z,4.43
2022-08-18T18:23:35.795Z,3.47
2022-08-18T18:26:19.713Z,4.18
2022-08-18T18:28:48.474Z,3.00
2022-08-18T18:31:21.993Z,2.58
2022-08-18T18:33:55.677Z,2.30
2022-08-18T18:36:31.787Z,3.65
2022-08-18T18:39:07.339Z,3.45
2022-08-18T18:41:39.354Z,2.50
2022-08-18T18:44:10.348Z,2.60
2022-08-18T18:46:41.271Z,4.25
2022-08-18T18:49:16.054Z,2.53
2022-08-18T18:51:46.950Z,4.93
2022-08-18T18:54:20.791Z,2.50
2022-08-18T18:56:50.292Z,2.15
2022-08-18T18:59:23.388Z,4.22
2022-08-18T19:01:55.571Z,2.60
2022-08-18T19:04:25.622Z,2.67
2022-08-18T19:06:55.383Z,4.65
2022-08-18T19:09:25.291Z,4.63
2022-08-18T19:11:58.812Z,3.07
2022-08-18T19:14:33.254Z,4.18
2022-08-18T19:19:37.238Z,2.85
2022-08-18T19:22:09.718Z,2.90
2022-08-18T19:24:39.688Z,3.50
2022-08-18T19:27:08.240Z,4.82
2022-08-18T19:29:39.254Z,3.42
2022-08-18T19:32:09.506Z,3.83
2022-08-18T19:34:51.448Z,4.40
2022-08-18T19:37:31.374Z,4.85
2022-08-18T19:40:03.262Z,5.35
2022-08-18T19:42:35.446Z,3.85
2022-08-18T19:45:17.027Z,3.45
2022-08-18T19:47:48.216Z,3.42
2022-08-18T19:50:16.802Z,4.68
2022-08-18T19:52:54.607Z,4.50
2022-08-18T19:55:28.176Z,6.07
2022-08-18T19:58:02.046Z,3.30
2022-08-18T20:00:39.800Z,3.00
2022-08-18T20:03:19.821Z,3.72
2022-08-18T20:05:52.439Z,7.65
2022-08-18T20:08:49.871Z,3.55
2022-08-18T20:11:41.072Z,3.40
2022-08-18T20:14:11.742Z,3.80
2022-08-18T20:16:44.884Z,4.10
2022-08-18T20:19:31.172Z,4.38
2022-08-18T20:22:01.858Z,3.65
2022-08-18T20:24:40.316Z,4.60
2022-08-18T20:27:21.425Z,4.65
2022-08-18T20:29:49.576Z,3.72
2022-08-18T20:32:28.885Z,5.03
2022-08-18T20:35:14.294Z,5.25
2022-08-18T20:37:42.587Z,4.28
2022-08-18T20:40:30.855Z,5.00
2022-08-18T20:43:07.307Z,3.80
2022-08-18T20:45:36.232Z,5.20
2022-08-18T20:48:17.252Z,4.93
2022-08-18T20:51:00.167Z,3.83
2022-08-18T20:53:50.117Z,6.43
2022-08-18T20:56:32.338Z,3.63
2022-08-18T20:59:10.287Z,3.70
2022-08-18T21:01:38.950Z,4.03
2022-08-18T21:04:06.625Z,4.72
2022-08-18T21:06:36.098Z,4.45
2022-08-18T21:09:03.524Z,4.97
2022-08-18T21:11:35.228Z,5.15
2022-08-18T21:14:04.042Z,5.00
2022-08-18T21:16:39.164Z,5.75
2022-08-18T21:19:13.587Z,5.25
2022-08-18T21:21:42.167Z,5.40
2022-08-18T21:24:19.665Z,4.97
2022-08-18T21:26:47.543Z,6.30
2022-08-18T21:29:15.717Z,4.95
2022-08-18T21:31:45.872Z,4.90
2022-08-18T21:34:18.237Z,4.90
2022-08-18T21:36:53.598Z,5.43
2022-08-18T21:39:21.870Z,4.45
2022-08-18T21:41:50.588Z,4.95
2022-08-18T21:44:21.628Z,5.07
2022-08-18T21:49:24.703Z,5.75
2022-08-18T21:51:52.118Z,5.28
2022-08-18T21:54:20.947Z,5.35
2022-08-18T21:56:48.399Z,4.57
2022-08-18T21:59:17.737Z,4.90
2022-08-18T22:01:49.854Z,5.72
2022-08-18T22:04:24.151Z,5.68
2022-08-18T22:06:54.207Z,6.43
2022-08-18T22:09:40.368Z,6.00
2022-08-18T22:12:41.823Z,5.78
2022-08-18T22:15:10.631Z,6.10
2022-08-18T22:17:43.406Z,6.82
2022-08-18T22:20:29.339Z,6.07
2022-08-18T22:23:18.281Z,5.68
2022-08-18T22:25:45.733Z,6.07
2022-08-18T22:28:13.232Z,5.50
2022-08-18T22:30:41.948Z,5.43
2022-08-18T22:33:09.349Z,6.00
2022-08-18T22:35:36.958Z,5.68
2022-08-18T22:38:05.726Z,6.40
2022-08-18T22:40:33.126Z,6.07
2022-08-18T22:43:00.513Z,6.80
2022-08-18T22:45:28.038Z,8.93
2022-08-18T22:47:55.452Z,6.50
2022-08-18T22:50:22.819Z,7.00
2022-08-18T22:52:50.645Z,7.43
2022-08-18T22:55:20.236Z,7.68
2022-08-18T22:57:52.033Z,9.65
2022-08-18T23:00:24.081Z,8.13
2022-08-18T23:02:53.115Z,8.30
2022-08-18T23:05:21.648Z,8.10
2022-08-18T23:07:49.646Z,9.10
2022-08-18T23:10:17.474Z,12.35
2022-08-18T23:12:47.495Z,12.43
2022-08-18T23:15:15.754Z,10.75
2022-08-18T23:17:43.650Z,9.73
2022-08-18T23:20:17.498Z,10.13
2022-08-18T23:22:46.920Z,11.38
2022-08-18T23:25:14.613Z,12.20
2022-08-18T23:27:42.800Z,12.45
2022-08-18T23:30:12.237Z,13.80
2022-08-18T23:32:39.704Z,14.32
2022-08-18T23:35:07.680Z,14.40
2022-08-18T23:37:35.110Z,12.85
2022-08-18T23:40:02.673Z,15.30
2022-08-18T23:42:31.457Z,14.45
2022-08-18T23:45:03.028Z,13.90
2022-08-18T23:47:31.766Z,14.15
2022-08-18T23:49:59.347Z,15.13
2022-08-18T23:52:26.740Z,13.05
2022-08-18T23:54:54.187Z,14.25
2022-08-18T23:57:21.611Z,14.32
2022-08-18T23:59:49.095Z,14.77
